Time;durP1;ratioP1;P1;durP2;ratioP2;P2;SDS_P1;SDS_P2;PMS_P1;PMS_P2;Temp;Humidity;BMP_temperature;BMP_pressure;BME280_temperature;BME280_humidity;BME280_pressure;Samples;Min_cycle;Max_cycle;Signal;HPM_P1;HPM_P2
2023/04/18 00:01:39;;;;;;;17.90;11.75;;;;;;;;;;5059587;28;20044;-77
2023/04/18 00:04:05;;;;;;;16.80;11.65;;;;;;;;;;5055010;28;20242;-77
2023/04/18 00:06:31;;;;;;;17.83;11.82;;;;;;;;;;5033185;28;20128;-76
2023/04/18 00:08:57;;;;;;;17.95;11.93;;;;;;;;;;5053228;28;20084;-76
2023/04/18 00:11:23;;;;;;;18.63;11.18;;;;;;;;;;5058777;28;20041;-77
2023/04/18 00:13:50;;;;;;;18.23;12.40;;;;;;;;;;5058891;28;20098;-77
2023/04/18 00:16:16;;;;;;;15.45;10.93;;;;;;;;;;5059472;28;20049;-77
2023/04/18 00:18:42;;;;;;;16.13;10.77;;;;;;;;;;5058336;28;20045;-77
2023/04/18 00:21:08;;;;;;;16.10;10.90;;;;;;;;;;5059275;28;20059;-78
2023/04/18 00:23:34;;;;;;;17.42;11.25;;;;;;;;;;5057799;28;20045;-78
2023/04/18 00:26:01;;;;;;;18.92;11.85;;;;;;;;;;5058894;28;20037;-78
2023/04/18 00:28:27;;;;;;;15.70;11.85;;;;;;;;;;5061089;28;20041;-78
2023/04/18 00:30:53;;;;;;;15.75;11.40;;;;;;;;;;5061826;28;20041;-78
2023/04/18 00:33:19;;;;;;;17.10;11.70;;;;;;;;;;5061111;28;20092;-78
2023/04/18 00:35:45;;;;;;;19.42;11.13;;;;;;;;;;5059274;28;20045;-77
2023/04/18 00:38:11;;;;;;;17.88;12.10;;;;;;;;;;5057660;28;20045;-77
2023/04/18 00:40:37;;;;;;;20.83;11.90;;;;;;;;;;5061641;28;20067;-79
2023/04/18 00:43:03;;;;;;;15.43;11.35;;;;;;;;;;5059627;28;20200;-78
2023/04/18 00:45:29;;;;;;;16.42;11.73;;;;;;;;;;5058460;28;20049;-77
2023/04/18 00:47:56;;;;;;;16.05;11.32;;;;;;;;;;5059268;28;20045;-77
2023/04/18 00:50:22;;;;;;;16.88;12.50;;;;;;;;;;5059322;28;20055;-78
2023/04/18 00:52:48;;;;;;;16.92;12.55;;;;;;;;;;5063128;28;20052;-78
2023/04/18 00:55:15;;;;;;;16.45;12.15;;;;;;;;;;5061629;28;20045;-77
2023/04/18 00:57:41;;;;;;;14.13;10.27;;;;;;;;;;5064852;28;20074;-78
2023/04/18 01:00:08;;;;;;;18.88;12.00;;;;;;;;;;5062017;28;20073;-78
2023/04/18 01:02:35;;;;;;;17.67;12.75;;;;;;;;;;5057082;28;20044;-78
2023/04/18 01:05:02;;;;;;;19.75;12.30;;;;;;;;;;5061164;28;20045;-78
2023/04/18 01:07:29;;;;;;;18.48;11.52;;;;;;;;;;5059724;28;20120;-77
2023/04/18 01:09:56;;;;;;;18.00;12.05;;;;;;;;;;5061898;28;20083;-78
2023/04/18 01:12:22;;;;;;;17.20;11.70;;;;;;;;;;5070911;28;20045;-78
2023/04/18 01:14:48;;;;;;;16.95;11.52;;;;;;;;;;5047277;28;20049;-77
2023/04/18 01:17:15;;;;;;;18.55;12.48;;;;;;;;;;5063487;28;20037;-77
2023/04/18 01:19:41;;;;;;;18.73;12.15;;;;;;;;;;5060228;28;20087;-77
2023/04/18 01:22:08;;;;;;;15.13;11.48;;;;;;;;;;5060437;28;20434;-77
2023/04/18 01:24:34;;;;;;;20.80;12.40;;;;;;;;;;5060142;28;20045;-78
2023/04/18 01:27:02;;;;;;;19.08;12.52;;;;;;;;;;5060502;28;20091;-77
2023/04/18 01:29:28;;;;;;;17.92;12.25;;;;;;;;;;5059903;28;20053;-79
2023/04/18 01:31:54;;;;;;;16.48;12.85;;;;;;;;;;5060107;28;20052;-77
2023/04/18 01:34:20;;;;;;;18.27;12.07;;;;;;;;;;5060342;28;20513;-78
2023/04/18 01:36:46;;;;;;;20.83;13.25;;;;;;;;;;5060454;28;20051;-77
2023/04/18 01:39:13;;;;;;;16.05;12.77;;;;;;;;;;5060623;28;20047;-77
2023/04/18 01:41:39;;;;;;;18.27;12.77;;;;;;;;;;5058511;28;20052;-77
2023/04/18 01:44:05;;;;;;;18.95;13.32;;;;;;;;;;5057894;28;20051;-78
2023/04/18 01:46:31;;;;;;;20.00;12.80;;;;;;;;;;5057874;28;20055;-80
2023/04/18 01:48:58;;;;;;;21.50;13.43;;;;;;;;;;5059033;28;20072;-77
2023/04/18 01:51:26;;;;;;;14.75;11.38;;;;;;;;;;5067515;28;20059;-77
2023/04/18 01:53:52;;;;;;;19.10;12.48;;;;;;;;;;5068204;28;20045;-77
2023/04/18 01:56:19;;;;;;;20.35;11.57;;;;;;;;;;5061322;28;20048;-76
2023/04/18 01:58:45;;;;;;;17.13;12.05;;;;;;;;;;5060108;28;20060;-78
2023/04/18 02:01:11;;;;;;;17.30;11.93;;;;;;;;;;5058371;28;20045;-77
2023/04/18 02:03:40;;;;;;;19.23;12.88;;;;;;;;;;5061462;28;20049;-78
2023/04/18 02:06:07;;;;;;;16.52;11.73;;;;;;;;;;5059041;28;20515;-77
2023/04/18 02:08:34;;;;;;;17.00;12.95;;;;;;;;;;5060740;28;20076;-78
2023/04/18 02:11:00;;;;;;;17.67;11.90;;;;;;;;;;5058453;28;20045;-77
2023/04/18 02:13:27;;;;;;;16.48;11.15;;;;;;;;;;5059721;28;20051;-77
2023/04/18 02:15:53;;;;;;;17.15;12.82;;;;;;;;;;5060552;28;20056;-77
2023/04/18 02:18:20;;;;;;;18.08;13.63;;;;;;;;;;5062186;28;20094;-78
2023/04/18 02:20:47;;;;;;;17.00;11.55;;;;;;;;;;5059300;28;20102;-79
2023/04/18 02:23:13;;;;;;;17.45;13.25;;;;;;;;;;5061059;28;20396;-78
2023/04/18 02:25:39;;;;;;;19.48;14.02;;;;;;;;;;5060503;28;20045;-78
2023/04/18 02:28:05;;;;;;;19.08;12.65;;;;;;;;;;5059935;28;20053;-78
2023/04/18 02:30:32;;;;;;;19.70;13.85;;;;;;;;;;5059977;28;20063;-77
2023/04/18 02:32:58;;;;;;;20.55;13.63;;;;;;;;;;5064435;28;20048;-78
2023/04/18 02:35:24;;;;;;;19.05;13.63;;;;;;;;;;5060128;28;20517;-77
2023/04/18 02:37:51;;;;;;;20.83;15.20;;;;;;;;;;5059900;28;20106;-77
2023/04/18 02:40:17;;;;;;;17.45;13.93;;;;;;;;;;5060536;28;20102;-77
2023/04/18 02:42:43;;;;;;;20.08;14.82;;;;;;;;;;5060150;28;20379;-76
2023/04/18 02:45:10;;;;;;;20.08;14.15;;;;;;;;;;5056677;28;20120;-77
2023/04/18 02:47:36;;;;;;;20.05;13.23;;;;;;;;;;5059814;28;20063;-78
2023/04/18 02:50:03;;;;;;;18.38;13.88;;;;;;;;;;5059778;28;20048;-77
2023/04/18 02:52:29;;;;;;;18.85;12.95;;;;;;;;;;5058662;28;20060;-78
2023/04/18 02:54:55;;;;;;;19.45;14.00;;;;;;;;;;5057050;28;20124;-77
2023/04/18 02:57:22;;;;;;;19.83;14.18;;;;;;;;;;5058284;28;20045;-77
2023/04/18 02:59:48;;;;;;;21.15;15.50;;;;;;;;;;5058389;28;20060;-77
2023/04/18 03:02:14;;;;;;;22.80;14.88;;;;;;;;;;5057725;28;20036;-77
2023/04/18 03:04:40;;;;;;;20.83;15.20;;;;;;;;;;5058677;28;20052;-78
2023/04/18 03:07:06;;;;;;;20.90;15.13;;;;;;;;;;5058090;28;20041;-77
2023/04/18 03:09:32;;;;;;;19.88;14.75;;;;;;;;;;5058167;28;20061;-77
2023/04/18 03:11:58;;;;;;;21.77;13.60;;;;;;;;;;5058802;28;20545;-76
2023/04/18 03:14:24;;;;;;;20.08;14.45;;;;;;;;;;5058311;28;20045;-77
2023/04/18 03:16:50;;;;;;;19.00;12.55;;;;;;;;;;5059514;28;20394;-78
2023/04/18 03:19:16;;;;;;;17.80;12.45;;;;;;;;;;5058952;28;20043;-77
2023/04/18 03:21:42;;;;;;;18.08;13.13;;;;;;;;;;5060671;28;20049;-77
2023/04/18 03:24:08;;;;;;;18.30;13.60;;;;;;;;;;5060605;28;20053;-78
2023/04/18 03:26:35;;;;;;;18.50;12.55;;;;;;;;;;5059161;28;20052;-77
2023/04/18 03:29:01;;;;;;;18.17;12.93;;;;;;;;;;5051825;28;20041;-79
2023/04/18 03:31:27;;;;;;;15.40;11.88;;;;;;;;;;5050794;28;20100;-77
2023/04/18 03:33:53;;;;;;;16.23;11.38;;;;;;;;;;5051818;28;20040;-78
2023/04/18 03:36:24;;;;;;;18.63;11.68;;;;;;;;;;5052302;28;20071;-78
2023/04/18 03:38:50;;;;;;;18.42;11.80;;;;;;;;;;5050113;28;20049;-77
2023/04/18 03:41:16;;;;;;;16.48;12.30;;;;;;;;;;5049672;28;20091;-78
2023/04/18 03:43:42;;;;;;;18.23;12.63;;;;;;;;;;5055653;28;20045;-78
2023/04/18 03:46:08;;;;;;;15.73;11.88;;;;;;;;;;5058081;28;20080;-78
2023/04/18 03:48:36;;;;;;;16.98;12.27;;;;;;;;;;5060533;28;20071;-78
2023/04/18 03:51:02;;;;;;;19.92;13.40;;;;;;;;;;5060528;28;20051;-78
2023/04/18 03:53:28;;;;;;;16.80;11.60;;;;;;;;;;5060655;28;20045;-77
2023/04/18 03:55:54;;;;;;;18.00;12.15;;;;;;;;;;5057316;28;20041;-78
2023/04/18 03:58:22;;;;;;;17.95;12.63;;;;;;;;;;5061162;28;20049;-77
2023/04/18 04:00:49;;;;;;;19.42;13.18;;;;;;;;;;5057762;28;20053;-78
2023/04/18 04:03:15;;;;;;;18.25;12.77;;;;;;;;;;5058989;28;20036;-78
2023/04/18 04:05:41;;;;;;;19.52;13.90;;;;;;;;;;5056444;28;20116;-78
2023/04/18 04:08:07;;;;;;;19.73;13.90;;;;;;;;;;5056661;28;20056;-77
2023/04/18 04:10:33;;;;;;;19.48;13.60;;;;;;;;;;5056559;28;20036;-79
2023/04/18 04:12:59;;;;;;;20.17;13.18;;;;;;;;;;5058689;28;20093;-78
2023/04/18 04:15:25;;;;;;;18.83;12.35;;;;;;;;;;5060954;28;20064;-77
2023/04/18 04:17:51;;;;;;;19.50;13.70;;;;;;;;;;5067238;28;20075;-77
2023/04/18 04:20:22;;;;;;;19.40;13.32;;;;;;;;;;5062150;28;20121;-78
2023/04/18 04:22:49;;;;;;;18.35;13.60;;;;;;;;;;5059410;28;20045;-78
2023/04/18 04:25:16;;;;;;;18.95;13.63;;;;;;;;;;5055004;28;20059;-78
2023/04/18 04:27:43;;;;;;;17.45;12.88;;;;;;;;;;5057788;28;20048;-78
2023/04/18 04:30:09;;;;;;;18.42;14.60;;;;;;;;;;5057994;28;20056;-78
2023/04/18 04:32:37;;;;;;;20.23;14.60;;;;;;;;;;5058151;28;20151;-79
2023/04/18 04:35:03;;;;;;;18.70;13.35;;;;;;;;;;5059280;28;20067;-78
2023/04/18 04:37:29;;;;;;;18.70;13.05;;;;;;;;;;5057484;28;20041;-77
2023/04/18 04:39:55;;;;;;;21.05;12.85;;;;;;;;;;5056712;28;20040;-79
2023/04/18 04:42:24;;;;;;;18.67;12.68;;;;;;;;;;5057163;28;20045;-78
2023/04/18 04:44:52;;;;;;;18.90;15.10;;;;;;;;;;5054356;28;20048;-78
2023/04/18 04:47:18;;;;;;;19.85;14.18;;;;;;;;;;5052548;28;20108;-78
2023/04/18 04:49:44;;;;;;;21.52;14.38;;;;;;;;;;5054477;28;20056;-79
2023/04/18 04:52:10;;;;;;;21.00;14.38;;;;;;;;;;5057872;28;20051;-78
2023/04/18 04:54:36;;;;;;;18.85;14.23;;;;;;;;;;5058908;28;20033;-78
2023/04/18 04:57:03;;;;;;;18.70;13.30;;;;;;;;;;5076184;28;20044;-77
2023/04/18 04:59:30;;;;;;;18.77;13.63;;;;;;;;;;5080414;28;20498;-79
2023/04/18 05:01:56;;;;;;;18.95;14.15;;;;;;;;;;5064073;28;20120;-78
2023/04/18 05:04:23;;;;;;;19.50;14.32;;;;;;;;;;5057432;28;20101;-78
2023/04/18 05:06:49;;;;;;;19.90;14.13;;;;;;;;;;5057583;28;20084;-78
2023/04/18 05:09:15;;;;;;;19.17;13.68;;;;;;;;;;5048771;28;20104;-78
2023/04/18 05:11:41;;;;;;;20.95;13.82;;;;;;;;;;5037341;28;20049;-78
2023/04/18 05:14:07;;;;;;;21.30;14.52;;;;;;;;;;5038153;28;20499;-79
2023/04/18 05:16:34;;;;;;;18.20;13.48;;;;;;;;;;5051183;28;20041;-78
2023/04/18 05:19:00;;;;;;;20.60;13.70;;;;;;;;;;5058089;28;20053;-78
2023/04/18 05:21:27;;;;;;;18.65;13.50;;;;;;;;;;5058794;28;20044;-79
2023/04/18 05:23:54;;;;;;;19.55;14.25;;;;;;;;;;5059142;28;20495;-80
2023/04/18 05:26:20;;;;;;;18.55;12.75;;;;;;;;;;5057635;28;20045;-78
2023/04/18 05:28:47;;;;;;;17.85;13.75;;;;;;;;;;5057143;28;20485;-78
2023/04/18 05:31:13;;;;;;;19.58;13.32;;;;;;;;;;5056880;28;20047;-78
2023/04/18 05:33:39;;;;;;;18.00;12.23;;;;;;;;;;5059287;28;20052;-78
2023/04/18 05:36:06;;;;;;;20.33;13.85;;;;;;;;;;5063110;28;20045;-78
2023/04/18 05:38:32;;;;;;;19.42;13.95;;;;;;;;;;5064534;28;20401;-78
2023/04/18 05:40:59;;;;;;;20.48;14.45;;;;;;;;;;5060694;28;20424;-78
2023/04/18 05:43:25;;;;;;;20.88;14.55;;;;;;;;;;5058165;28;20099;-77
2023/04/18 05:45:52;;;;;;;23.27;14.60;;;;;;;;;;5058748;28;20068;-77
2023/04/18 05:48:18;;;;;;;24.20;15.35;;;;;;;;;;5059271;28;20055;-78
2023/04/18 05:50:44;;;;;;;19.65;14.77;;;;;;;;;;5058478;28;20092;-78
2023/04/18 05:53:10;;;;;;;18.73;14.30;;;;;;;;;;5060103;28;20056;-78
2023/04/18 05:55:39;;;;;;;19.52;14.75;;;;;;;;;;5059537;28;20056;-78
2023/04/18 05:58:05;;;;;;;21.55;15.43;;;;;;;;;;5058061;28;20037;-78
2023/04/18 06:00:31;;;;;;;21.30;15.13;;;;;;;;;;5059352;28;20033;-78
2023/04/18 06:02:57;;;;;;;21.23;14.95;;;;;;;;;;5061430;28;20088;-78
2023/04/18 06:05:23;;;;;;;18.05;14.65;;;;;;;;;;5058045;28;20040;-78
2023/04/18 06:07:49;;;;;;;19.00;14.70;;;;;;;;;;5059959;28;20041;-78
2023/04/18 06:10:16;;;;;;;20.92;13.88;;;;;;;;;;5060072;28;20037;-78
2023/04/18 06:12:42;;;;;;;24.25;14.60;;;;;;;;;;5056993;28;20048;-79
2023/04/18 06:15:08;;;;;;;18.10;14.25;;;;;;;;;;5056120;28;20048;-77
2023/04/18 06:17:34;;;;;;;17.50;14.07;;;;;;;;;;5056472;28;20049;-78
2023/04/18 06:20:00;;;;;;;19.10;14.60;;;;;;;;;;5063127;28;20463;-78
2023/04/18 06:22:27;;;;;;;19.25;12.05;;;;;;;;;;5073373;28;20037;-80
2023/04/18 06:24:54;;;;;;;19.77;14.13;;;;;;;;;;5062166;28;20101;-78
2023/04/18 06:27:20;;;;;;;21.08;13.68;;;;;;;;;;5060874;28;20484;-79
2023/04/18 06:29:46;;;;;;;19.60;13.45;;;;;;;;;;5044837;28;20041;-78
2023/04/18 06:32:12;;;;;;;19.10;13.50;;;;;;;;;;5063780;28;20048;-79
2023/04/18 06:34:39;;;;;;;17.75;12.82;;;;;;;;;;5064690;28;20106;-78
2023/04/18 06:37:05;;;;;;;17.48;11.63;;;;;;;;;;5063909;28;20053;-78
2023/04/18 06:39:31;;;;;;;16.40;11.93;;;;;;;;;;5066641;28;20051;-78
2023/04/18 06:41:58;;;;;;;16.50;12.40;;;;;;;;;;5068104;28;20041;-78
2023/04/18 06:44:24;;;;;;;15.50;11.80;;;;;;;;;;5068338;28;20041;-77
2023/04/18 06:46:50;;;;;;;15.77;12.05;;;;;;;;;;5059453;28;20047;-79
2023/04/18 06:49:16;;;;;;;16.25;11.00;;;;;;;;;;5063232;28;20090;-78
2023/04/18 06:51:42;;;;;;;15.60;11.48;;;;;;;;;;5065352;28;20112;-78
2023/04/18 06:54:08;;;;;;;18.25;11.75;;;;;;;;;;5065195;28;20098;-79
2023/04/18 06:56:34;;;;;;;14.38;9.30;;;;;;;;;;5064995;28;20539;-79
2023/04/18 06:59:00;;;;;;;15.88;10.63;;;;;;;;;;5065513;28;20124;-79
2023/04/18 07:01:26;;;;;;;15.25;10.60;;;;;;;;;;5064863;28;20041;-79
2023/04/18 07:03:52;;;;;;;14.88;9.93;;;;;;;;;;5064731;28;20506;-79
2023/04/18 07:06:18;;;;;;;15.00;10.70;;;;;;;;;;5060926;28;20037;-78
2023/04/18 07:08:44;;;;;;;12.85;9.98;;;;;;;;;;5065361;28;20067;-78
2023/04/18 07:11:12;;;;;;;13.32;9.10;;;;;;;;;;5064635;28;20052;-79
2023/04/18 07:13:38;;;;;;;16.15;11.05;;;;;;;;;;5059174;28;20060;-78
2023/04/18 07:16:04;;;;;;;15.50;10.00;;;;;;;;;;5063839;28;20052;-79
2023/04/18 07:18:30;;;;;;;11.38;9.38;;;;;;;;;;5061384;28;20072;-78
2023/04/18 07:20:56;;;;;;;13.15;9.50;;;;;;;;;;5060461;28;20378;-78
2023/04/18 07:23:23;;;;;;;14.13;8.80;;;;;;;;;;5060247;28;20059;-78
2023/04/18 07:25:49;;;;;;;15.07;9.77;;;;;;;;;;5075132;28;20455;-79
2023/04/18 07:28:15;;;;;;;15.82;10.45;;;;;;;;;;5060647;28;20444;-78
2023/04/18 07:30:41;;;;;;;17.60;10.27;;;;;;;;;;5063635;28;20146;-78
2023/04/18 07:33:07;;;;;;;12.25;9.10;;;;;;;;;;5059052;28;20040;-79
2023/04/18 07:35:34;;;;;;;12.10;8.68;;;;;;;;;;5061861;28;20055;-79
2023/04/18 07:38:00;;;;;;;12.95;8.60;;;;;;;;;;5062832;28;20049;-79
2023/04/18 07:40:26;;;;;;;12.77;9.75;;;;;;;;;;5061558;28;20043;-79
2023/04/18 07:42:52;;;;;;;11.48;9.27;;;;;;;;;;5056748;28;20071;-80
2023/04/18 07:45:18;;;;;;;14.02;9.50;;;;;;;;;;5046729;28;20125;-79
2023/04/18 07:47:44;;;;;;;13.75;9.55;;;;;;;;;;5048054;28;20045;-79
2023/04/18 07:50:11;;;;;;;13.13;9.73;;;;;;;;;;5064938;28;20040;-79
2023/04/18 07:52:37;;;;;;;15.98;10.85;;;;;;;;;;5065590;28;20044;-80
2023/04/18 07:55:03;;;;;;;12.48;9.57;;;;;;;;;;5062369;28;20077;-79
2023/04/18 07:57:29;;;;;;;13.35;9.45;;;;;;;;;;5062962;28;20048;-80
2023/04/18 07:59:55;;;;;;;12.73;9.45;;;;;;;;;;5062561;28;20044;-80
2023/04/18 08:02:21;;;;;;;13.07;10.07;;;;;;;;;;5061122;28;20047;-79
2023/04/18 08:04:48;;;;;;;15.70;10.75;;;;;;;;;;5061046;28;20055;-79
2023/04/18 08:07:15;;;;;;;16.02;10.82;;;;;;;;;;5061627;28;20096;-78
2023/04/18 08:09:41;;;;;;;11.70;9.98;;;;;;;;;;5061583;28;20057;-79
2023/04/18 08:12:07;;;;;;;13.85;10.55;;;;;;;;;;5062073;28;20045;-78
2023/04/18 08:14:33;;;;;;;15.70;10.18;;;;;;;;;;5060572;28;20128;-79
2023/04/18 08:16:59;;;;;;;14.70;10.70;;;;;;;;;;5061282;28;20124;-79
2023/04/18 08:19:25;;;;;;;15.48;10.43;;;;;;;;;;5045560;28;20041;-79
2023/04/18 08:21:51;;;;;;;13.48;10.52;;;;;;;;;;5060207;28;20067;-79
2023/04/18 08:24:17;;;;;;;14.50;10.95;;;;;;;;;;5065119;28;20044;-78
2023/04/18 08:26:44;;;;;;;14.48;10.77;;;;;;;;;;5061186;28;20454;-78
2023/04/18 08:29:10;;;;;;;16.45;11.82;;;;;;;;;;5063042;28;20049;-79
2023/04/18 08:31:36;;;;;;;15.27;11.32;;;;;;;;;;5061799;28;20045;-78
2023/04/18 08:34:02;;;;;;;15.30;10.02;;;;;;;;;;5060714;28;20040;-79
2023/04/18 08:36:28;;;;;;;17.38;11.88;;;;;;;;;;5057747;28;20047;-78
2023/04/18 08:38:55;;;;;;;17.00;12.25;;;;;;;;;;5058454;28;20044;-78
2023/04/18 08:41:22;;;;;;;15.65;11.80;;;;;;;;;;5058486;28;20123;-78
2023/04/18 08:43:48;;;;;;;16.40;10.90;;;;;;;;;;5062115;28;20049;-78
2023/04/18 08:46:14;;;;;;;14.18;10.20;;;;;;;;;;5060377;28;20071;-79
2023/04/18 08:48:41;;;;;;;14.90;11.45;;;;;;;;;;5061591;28;20041;-78
2023/04/18 08:51:08;;;;;;;14.75;9.57;;;;;;;;;;5059938;28;20041;-78
2023/04/18 08:53:34;;;;;;;16.08;11.75;;;;;;;;;;5062008;28;20382;-77
2023/04/18 08:56:00;;;;;;;17.30;11.88;;;;;;;;;;5056149;28;20053;-78
2023/04/18 08:58:26;;;;;;;15.80;11.68;;;;;;;;;;5058479;28;20084;-78
2023/04/18 09:00:55;;;;;;;18.55;12.25;;;;;;;;;;5057761;28;20045;-78
2023/04/18 09:03:38;;;;;;;17.35;10.93;;;;;;;;;;5054515;28;20479;-78
2023/04/18 09:06:15;;;;;;;16.75;11.82;;;;;;;;;;5060095;28;20542;-78
2023/04/18 09:08:44;;;;;;;15.75;12.07;;;;;;;;;;5056708;28;20112;-77
2023/04/18 09:11:24;;;;;;;15.27;11.27;;;;;;;;;;5064491;28;20057;-78
2023/04/18 09:13:51;;;;;;;17.03;11.37;;;;;;;;;;5070243;28;20523;-78
2023/04/18 09:16:21;;;;;;;15.57;11.50;;;;;;;;;;5064937;28;20108;-78
2023/04/18 09:19:06;;;;;;;14.80;10.55;;;;;;;;;;5061669;28;20465;-79
2023/04/18 09:21:34;;;;;;;14.23;10.35;;;;;;;;;;5058095;28;20040;-77
2023/04/18 09:24:22;;;;;;;17.05;11.38;;;;;;;;;;5064392;28;20403;-78
2023/04/18 09:26:49;;;;;;;14.30;10.32;;;;;;;;;;5062333;28;20041;-79
2023/04/18 09:29:17;;;;;;;16.50;9.90;;;;;;;;;;5063045;28;20033;-78
2023/04/18 09:32:02;;;;;;;13.93;9.95;;;;;;;;;;5061880;28;20055;-78
2023/04/18 09:34:28;;;;;;;13.15;10.15;;;;;;;;;;5061893;28;20098;-78
2023/04/18 09:37:08;;;;;;;13.02;9.63;;;;;;;;;;5059422;28;20052;-79
2023/04/18 09:39:34;;;;;;;15.75;10.52;;;;;;;;;;5057585;28;20093;-79
2023/04/18 09:42:01;;;;;;;14.25;9.73;;;;;;;;;;5063133;28;20041;-79
2023/04/18 09:44:27;;;;;;;13.00;9.95;;;;;;;;;;5063988;28;20092;-79
2023/04/18 09:46:53;;;;;;;15.93;10.90;;;;;;;;;;5061312;28;20110;-78
2023/04/18 09:49:19;;;;;;;15.30;10.70;;;;;;;;;;5059242;28;20131;-77
2023/04/18 09:51:46;;;;;;;14.50;9.90;;;;;;;;;;5062273;28;20483;-77
2023/04/18 09:54:15;;;;;;;16.27;9.95;;;;;;;;;;5065243;28;20041;-78
2023/04/18 09:56:45;;;;;;;15.27;10.40;;;;;;;;;;5080873;28;20051;-78
2023/04/18 09:59:12;;;;;;;13.23;9.63;;;;;;;;;;5062185;28;20095;-78
2023/04/18 10:01:44;;;;;;;13.73;9.50;;;;;;;;;;5065533;28;20088;-78
2023/04/18 10:04:11;;;;;;;10.80;8.52;;;;;;;;;;5064407;28;20119;-78
2023/04/18 10:06:38;;;;;;;11.27;8.88;;;;;;;;;;5065774;28;20055;-78
2023/04/18 10:09:06;;;;;;;13.07;8.48;;;;;;;;;;5061047;28;20065;-79
2023/04/18 10:11:32;;;;;;;10.93;7.75;;;;;;;;;;5063222;28;20045;-77
2023/04/18 10:14:00;;;;;;;10.40;7.05;;;;;;;;;;5060808;28;20068;-77
2023/04/18 10:16:27;;;;;;;10.40;7.18;;;;;;;;;;5058154;28;20052;-76
2023/04/18 10:18:53;;;;;;;14.15;7.60;;;;;;;;;;5055528;28;20091;-78
2023/04/18 10:21:20;;;;;;;11.40;7.63;;;;;;;;;;5059476;28;20415;-78
2023/04/18 10:23:47;;;;;;;10.10;6.57;;;;;;;;;;5055492;28;20053;-77
2023/04/18 10:26:14;;;;;;;12.25;8.13;;;;;;;;;;5060313;28;20171;-78
2023/04/18 10:28:53;;;;;;;10.70;7.20;;;;;;;;;;5061068;28;20056;-78
2023/04/18 10:31:20;;;;;;;10.77;7.40;;;;;;;;;;5058720;28;20041;-78
2023/04/18 10:33:51;;;;;;;14.48;7.43;;;;;;;;;;5058075;28;20067;-78
2023/04/18 10:36:19;;;;;;;10.45;6.75;;;;;;;;;;5058093;28;20049;-78
2023/04/18 10:38:53;;;;;;;11.25;7.35;;;;;;;;;;5060968;28;20068;-77
2023/04/18 10:41:26;;;;;;;12.55;7.90;;;;;;;;;;5058097;28;20116;-78
2023/04/18 10:44:07;;;;;;;10.23;7.65;;;;;;;;;;5050856;28;20123;-78
2023/04/18 10:46:34;;;;;;;11.77;7.43;;;;;;;;;;5067583;28;20044;-77
2023/04/18 10:49:16;;;;;;;11.20;6.95;;;;;;;;;;5053556;28;20041;-77
2023/04/18 10:51:45;;;;;;;14.77;7.15;;;;;;;;;;5053842;28;20083;-77
2023/04/18 10:54:32;;;;;;;12.10;7.93;;;;;;;;;;5057382;28;20128;-78
2023/04/18 10:56:59;;;;;;;11.50;8.82;;;;;;;;;;5059119;28;20047;-78
2023/04/18 10:59:25;;;;;;;13.60;7.05;;;;;;;;;;5058990;28;20410;-78
2023/04/18 11:02:05;;;;;;;13.85;8.70;;;;;;;;;;5057569;28;20049;-78
2023/04/18 11:04:31;;;;;;;20.63;8.93;;;;;;;;;;5058467;28;20055;-78
2023/04/18 11:06:57;;;;;;;17.52;8.70;;;;;;;;;;5055999;28;20398;-78
2023/04/18 11:09:24;;;;;;;15.00;8.82;;;;;;;;;;5057550;28;20503;-77
2023/04/18 11:12:04;;;;;;;13.07;8.90;;;;;;;;;;5069640;28;20048;-77
2023/04/18 11:14:43;;;;;;;11.20;8.35;;;;;;;;;;5057517;28;20041;-77
2023/04/18 11:17:22;;;;;;;16.63;9.23;;;;;;;;;;5057718;28;20049;-77
2023/04/18 11:19:49;;;;;;;13.20;9.30;;;;;;;;;;5054874;28;20077;-78
2023/04/18 11:22:15;;;;;;;14.35;8.15;;;;;;;;;;5057554;28;20049;-77
2023/04/18 11:24:41;;;;;;;15.35;9.98;;;;;;;;;;5057204;28;20056;-77
2023/04/18 11:27:08;;;;;;;13.30;9.25;;;;;;;;;;5066121;28;20063;-77
2023/04/18 11:29:34;;;;;;;14.05;9.60;;;;;;;;;;5059841;28;20521;-77
2023/04/18 11:32:00;;;;;;;15.40;10.15;;;;;;;;;;5058987;28;20044;-77
2023/04/18 11:34:30;;;;;;;15.95;10.23;;;;;;;;;;5056793;28;20048;-75
2023/04/18 11:36:57;;;;;;;12.45;9.85;;;;;;;;;;5060352;28;20118;-77
2023/04/18 11:39:23;;;;;;;14.43;10.25;;;;;;;;;;5056284;28;20571;-77
2023/04/18 11:41:49;;;;;;;11.68;7.28;;;;;;;;;;5056545;28;20056;-79
2023/04/18 11:44:25;;;;;;;13.85;9.43;;;;;;;;;;5057841;28;20076;-78
2023/04/18 11:46:54;;;;;;;13.88;9.30;;;;;;;;;;5057878;28;20037;-78
2023/04/18 11:49:27;;;;;;;15.10;9.27;;;;;;;;;;5055694;28;20106;-78
2023/04/18 11:51:53;;;;;;;13.25;9.80;;;;;;;;;;5055376;28;20044;-78
2023/04/18 11:54:48;;;;;;;13.73;10.20;;;;;;;;;;5055724;28;20033;-78
2023/04/18 11:57:22;;;;;;;17.17;10.35;;;;;;;;;;5056990;28;20049;-76
2023/04/18 11:59:58;;;;;;;16.65;10.85;;;;;;;;;;5058375;28;20044;-77
2023/04/18 12:02:25;;;;;;;13.82;10.50;;;;;;;;;;5057677;28;20111;-77
2023/04/18 12:04:53;;;;;;;14.93;10.48;;;;;;;;;;5071299;28;20136;-77
2023/04/18 12:07:31;;;;;;;16.30;11.38;;;;;;;;;;5064124;28;20048;-77
2023/04/18 12:09:57;;;;;;;15.02;10.98;;;;;;;;;;5071474;28;20586;-77
2023/04/18 12:12:24;;;;;;;16.92;10.93;;;;;;;;;;5069653;28;20108;-78
2023/04/18 12:15:07;;;;;;;15.88;10.13;;;;;;;;;;5058805;28;20052;-78
2023/04/18 12:17:34;;;;;;;13.75;10.75;;;;;;;;;;5063079;28;20055;-77
2023/04/18 12:20:00;;;;;;;13.27;9.35;;;;;;;;;;5068550;28;20551;-79
2023/04/18 12:22:36;;;;;;;15.40;9.02;;;;;;;;;;5055384;28;20123;-77
2023/04/18 12:25:29;;;;;;;12.27;9.70;;;;;;;;;;5051264;28;20049;-77
2023/04/18 12:28:01;;;;;;;15.00;8.45;;;;;;;;;;5044444;28;20076;-78
2023/04/18 12:30:28;;;;;;;10.98;8.23;;;;;;;;;;5071509;28;20567;-77
2023/04/18 12:33:01;;;;;;;13.18;8.20;;;;;;;;;;5057932;28;20044;-78
2023/04/18 12:35:27;;;;;;;10.13;7.85;;;;;;;;;;5062847;28;20040;-77
2023/04/18 12:37:55;;;;;;;12.70;7.70;;;;;;;;;;5058319;28;20041;-77
2023/04/18 12:40:21;;;;;;;10.65;6.93;;;;;;;;;;5057039;28;20384;-77
2023/04/18 12:42:48;;;;;;;9.15;6.72;;;;;;;;;;5056664;28;20052;-78
2023/04/18 12:45:15;;;;;;;12.88;7.18;;;;;;;;;;5057779;28;20041;-77
2023/04/18 12:47:42;;;;;;;10.02;6.90;;;;;;;;;;5056319;28;20048;-77
2023/04/18 12:50:09;;;;;;;12.57;7.15;;;;;;;;;;5055700;28;20086;-77
2023/04/18 12:52:37;;;;;;;12.65;7.15;;;;;;;;;;5054285;28;20044;-77
2023/04/18 12:55:03;;;;;;;9.63;6.78;;;;;;;;;;5057146;28;20041;-77
2023/04/18 12:57:30;;;;;;;10.13;5.80;;;;;;;;;;5054834;28;20122;-77
2023/04/18 12:59:56;;;;;;;8.48;5.57;;;;;;;;;;5063144;28;20045;-77
2023/04/18 13:02:23;;;;;;;8.75;5.75;;;;;;;;;;5054194;28;20499;-78
2023/04/18 13:04:50;;;;;;;9.40;5.70;;;;;;;;;;5053366;28;20067;-78
2023/04/18 13:07:16;;;;;;;8.77;5.45;;;;;;;;;;5056608;28;20041;-78
2023/04/18 13:09:42;;;;;;;8.82;4.70;;;;;;;;;;5062860;28;20056;-78
2023/04/18 13:12:08;;;;;;;9.85;4.45;;;;;;;;;;5040148;28;20091;-78
2023/04/18 13:14:34;;;;;;;6.90;4.53;;;;;;;;;;5056471;28;20409;-77
2023/04/18 13:17:00;;;;;;;7.90;4.38;;;;;;;;;;5056801;28;20041;-77
2023/04/18 13:19:26;;;;;;;8.00;4.57;;;;;;;;;;5055432;28;20063;-77
2023/04/18 13:21:52;;;;;;;8.18;4.10;;;;;;;;;;5056348;28;20044;-78
2023/04/18 13:24:19;;;;;;;8.40;4.05;;;;;;;;;;5055205;28;20040;-78
2023/04/18 13:26:45;;;;;;;10.15;3.97;;;;;;;;;;5057288;28;20494;-78
2023/04/18 13:29:11;;;;;;;7.97;3.85;;;;;;;;;;5056005;28;20095;-78
2023/04/18 13:31:37;;;;;;;7.68;4.32;;;;;;;;;;5056499;28;20052;-77
2023/04/18 13:34:03;;;;;;;7.88;4.30;;;;;;;;;;5056032;28;20041;-78
2023/04/18 13:36:30;;;;;;;6.43;4.05;;;;;;;;;;5055715;28;20401;-77
2023/04/18 13:38:56;;;;;;;7.03;4.00;;;;;;;;;;5055308;28;20113;-77
2023/04/18 13:41:23;;;;;;;7.68;3.78;;;;;;;;;;5056122;28;20049;-77
2023/04/18 13:43:49;;;;;;;5.70;3.80;;;;;;;;;;5056529;28;20615;-77
2023/04/18 13:46:15;;;;;;;6.63;4.50;;;;;;;;;;5054487;28;20138;-75
2023/04/18 13:48:41;;;;;;;8.38;5.40;;;;;;;;;;5048489;28;20048;-76
2023/04/18 13:51:07;;;;;;;11.75;5.35;;;;;;;;;;5045291;28;20076;-76
2023/04/18 13:53:34;;;;;;;9.40;5.35;;;;;;;;;;5069515;28;20048;-77
2023/04/18 13:56:00;;;;;;;6.90;4.65;;;;;;;;;;5075594;28;20045;-78
2023/04/18 13:58:26;;;;;;;8.93;5.00;;;;;;;;;;5058294;28;20063;-77
2023/04/18 14:00:52;;;;;;;11.98;5.43;;;;;;;;;;5061658;28;20043;-78
2023/04/18 14:03:19;;;;;;;7.75;5.32;;;;;;;;;;5054474;28;20045;-76
2023/04/18 14:05:45;;;;;;;8.85;5.28;;;;;;;;;;5059662;28;20037;-78
2023/04/18 14:08:11;;;;;;;10.63;5.60;;;;;;;;;;5052689;28;20111;-77
2023/04/18 14:10:37;;;;;;;12.52;6.00;;;;;;;;;;5056771;28;20121;-77
2023/04/18 14:13:03;;;;;;;10.68;5.88;;;;;;;;;;5057274;28;20510;-76
2023/04/18 14:15:29;;;;;;;8.65;5.80;;;;;;;;;;5057044;28;20403;-77
2023/04/18 14:17:55;;;;;;;9.85;5.80;;;;;;;;;;5057486;28;20135;-77
2023/04/18 14:20:22;;;;;;;8.73;5.63;;;;;;;;;;5058165;28;20045;-78
2023/04/18 14:22:49;;;;;;;8.48;6.03;;;;;;;;;;5060376;28;20541;-77
2023/04/18 14:25:15;;;;;;;15.43;6.07;;;;;;;;;;5060352;28;20162;-77